Iron City, Colorado
Current Conditions -  °F | °C
As of 1:54 PM on Tuesday 25 Nov 2014 (Local Time) from K7BM Reporting Station
Haze Haze  
Wind Chill: 14°   Ceiling: 1400
Heat Index: 28°   Visibility: 2.5mi
Dew Point: 16°   Wind: 24mph
Humidity: 59%   Direction: 330°NNW
Pressure: 30.03"   Gusts: 46mph
Location:  38.7194°N, 106.276°W
Report Text: K7BM 252054Z AUTO 33021G40KT 290V350 2 1/2SM HZ BKN014 OVC020 M02/M09 A3003 RMK AO2
Loading
Personal Weather Stations






























Interactive Weather Map New forecast layout! Learn more

10-Day Weather Forecast

Advertisements
Track Severe Weather on mobile